sensor_id;sensor_type;location;lat;lon;timestamp;temperature;humidity
20291;DHT22;10304;51.074;13.754;2023-12-07T00:02:04;6.40;1.00
20291;DHT22;10304;51.074;13.754;2023-12-07T00:04:32;6.40;1.00
20291;DHT22;10304;51.074;13.754;2023-12-07T00:06:58;6.40;1.00
20291;DHT22;10304;51.074;13.754;2023-12-07T00:09:26;6.30;1.00
20291;DHT22;10304;51.074;13.754;2023-12-07T00:11:52;6.40;1.00
20291;DHT22;10304;51.074;13.754;2023-12-07T00:14:19;6.30;1.00
20291;DHT22;10304;51.074;13.754;2023-12-07T00:16:46;6.30;1.00
20291;DHT22;10304;51.074;13.754;2023-12-07T00:19:13;6.20;1.00
20291;DHT22;10304;51.074;13.754;2023-12-07T00:21:40;6.10;1.00
20291;DHT22;10304;51.074;13.754;2023-12-07T00:24:07;6.10;1.00
20291;DHT22;10304;51.074;13.754;2023-12-07T00:26:33;6.10;1.00
20291;DHT22;10304;51.074;13.754;2023-12-07T00:29:00;6.10;1.00
20291;DHT22;10304;51.074;13.754;2023-12-07T00:31:27;6.10;1.00
20291;DHT22;10304;51.074;13.754;2023-12-07T00:33:55;6.10;1.00
20291;DHT22;10304;51.074;13.754;2023-12-07T00:36:21;6.10;1.00
20291;DHT22;10304;51.074;13.754;2023-12-07T00:38:48;6.00;1.00
20291;DHT22;10304;51.074;13.754;2023-12-07T00:41:15;6.00;1.00
20291;DHT22;10304;51.074;13.754;2023-12-07T00:43:42;6.00;1.00
20291;DHT22;10304;51.074;13.754;2023-12-07T00:46:09;6.00;1.00
20291;DHT22;10304;51.074;13.754;2023-12-07T00:48:37;6.00;1.00
20291;DHT22;10304;51.074;13.754;2023-12-07T00:51:04;6.00;1.00
20291;DHT22;10304;51.074;13.754;2023-12-07T00:53:33;6.00;1.00
20291;DHT22;10304;51.074;13.754;2023-12-07T00:55:59;6.00;1.00
20291;DHT22;10304;51.074;13.754;2023-12-07T00:58:26;6.00;1.00
20291;DHT22;10304;51.074;13.754;2023-12-07T01:00:54;6.00;1.00
20291;DHT22;10304;51.074;13.754;2023-12-07T01:03:23;6.00;1.00
20291;DHT22;10304;51.074;13.754;2023-12-07T01:05:50;6.00;6.80
20291;DHT22;10304;51.074;13.754;2023-12-07T01:08:17;6.00;15.90
20291;DHT22;10304;51.074;13.754;2023-12-07T01:10:44;6.00;99.90
20291;DHT22;10304;51.074;13.754;2023-12-07T01:13:11;6.00;80.30
20291;DHT22;10304;51.074;13.754;2023-12-07T01:15:38;6.00;99.90
20291;DHT22;10304;51.074;13.754;2023-12-07T01:18:05;6.00;99.90
20291;DHT22;10304;51.074;13.754;2023-12-07T01:20:32;6.00;99.90
20291;DHT22;10304;51.074;13.754;2023-12-07T01:22:59;6.00;99.90
20291;DHT22;10304;51.074;13.754;2023-12-07T01:25:26;6.00;99.90
20291;DHT22;10304;51.074;13.754;2023-12-07T01:27:54;6.00;99.90
20291;DHT22;10304;51.074;13.754;2023-12-07T01:30:22;6.00;99.90
20291;DHT22;10304;51.074;13.754;2023-12-07T01:32:49;6.10;99.90
20291;DHT22;10304;51.074;13.754;2023-12-07T01:35:16;6.00;99.90
20291;DHT22;10304;51.074;13.754;2023-12-07T01:37:42;6.00;99.90
20291;DHT22;10304;51.074;13.754;2023-12-07T01:40:10;6.00;99.90
20291;DHT22;10304;51.074;13.754;2023-12-07T01:42:38;6.00;99.90
20291;DHT22;10304;51.074;13.754;2023-12-07T01:45:06;6.00;99.90
20291;DHT22;10304;51.074;13.754;2023-12-07T01:47:35;6.00;99.90
20291;DHT22;10304;51.074;13.754;2023-12-07T01:50:04;6.00;99.90
20291;DHT22;10304;51.074;13.754;2023-12-07T01:52:32;6.00;99.90
20291;DHT22;10304;51.074;13.754;2023-12-07T01:54:59;6.00;99.90
20291;DHT22;10304;51.074;13.754;2023-12-07T01:57:27;6.00;99.90
20291;DHT22;10304;51.074;13.754;2023-12-07T01:59:54;6.00;99.90
20291;DHT22;10304;51.074;13.754;2023-12-07T02:02:21;6.00;99.90
20291;DHT22;10304;51.074;13.754;2023-12-07T02:04:49;6.00;99.90
20291;DHT22;10304;51.074;13.754;2023-12-07T02:07:17;6.00;99.90
20291;DHT22;10304;51.074;13.754;2023-12-07T02:09:44;6.00;99.90
20291;DHT22;10304;51.074;13.754;2023-12-07T02:12:11;5.90;1.00
20291;DHT22;10304;51.074;13.754;2023-12-07T02:14:38;5.90;1.00
20291;DHT22;10304;51.074;13.754;2023-12-07T02:17:21;5.90;1.00
20291;DHT22;10304;51.074;13.754;2023-12-07T02:19:57;5.90;1.00
20291;DHT22;10304;51.074;13.754;2023-12-07T02:22:42;5.90;1.00
20291;DHT22;10304;51.074;13.754;2023-12-07T02:25:15;5.90;1.00
20291;DHT22;10304;51.074;13.754;2023-12-07T02:27:45;5.90;1.00
20291;DHT22;10304;51.074;13.754;2023-12-07T02:30:15;5.90;1.00
20291;DHT22;10304;51.074;13.754;2023-12-07T02:32:44;5.90;1.00
20291;DHT22;10304;51.074;13.754;2023-12-07T02:35:13;5.90;1.00
20291;DHT22;10304;51.074;13.754;2023-12-07T02:37:48;5.90;1.00
20291;DHT22;10304;51.074;13.754;2023-12-07T02:40:22;5.90;1.00
20291;DHT22;10304;51.074;13.754;2023-12-07T02:42:50;5.90;1.00
20291;DHT22;10304;51.074;13.754;2023-12-07T02:45:18;5.90;99.90
20291;DHT22;10304;51.074;13.754;2023-12-07T02:47:45;5.90;99.90
20291;DHT22;10304;51.074;13.754;2023-12-07T02:50:12;5.90;99.90
20291;DHT22;10304;51.074;13.754;2023-12-07T02:52:40;5.90;99.90
20291;DHT22;10304;51.074;13.754;2023-12-07T02:55:08;5.90;99.90
20291;DHT22;10304;51.074;13.754;2023-12-07T02:57:36;5.90;99.90
20291;DHT22;10304;51.074;13.754;2023-12-07T03:00:05;5.80;99.90
20291;DHT22;10304;51.074;13.754;2023-12-07T03:02:36;5.90;99.90
20291;DHT22;10304;51.074;13.754;2023-12-07T03:05:04;5.90;99.90
20291;DHT22;10304;51.074;13.754;2023-12-07T03:07:31;5.80;99.90
20291;DHT22;10304;51.074;13.754;2023-12-07T03:09:58;5.90;99.90
20291;DHT22;10304;51.074;13.754;2023-12-07T03:12:25;5.90;99.90
20291;DHT22;10304;51.074;13.754;2023-12-07T03:14:52;5.90;99.90
20291;DHT22;10304;51.074;13.754;2023-12-07T03:17:19;5.90;99.90
20291;DHT22;10304;51.074;13.754;2023-12-07T03:19:46;5.90;99.90
20291;DHT22;10304;51.074;13.754;2023-12-07T03:22:13;5.90;99.90
20291;DHT22;10304;51.074;13.754;2023-12-07T03:24:45;5.90;99.90
20291;DHT22;10304;51.074;13.754;2023-12-07T03:27:13;5.90;99.90
20291;DHT22;10304;51.074;13.754;2023-12-07T03:29:40;5.90;99.90
20291;DHT22;10304;51.074;13.754;2023-12-07T03:32:07;5.90;99.90
20291;DHT22;10304;51.074;13.754;2023-12-07T03:34:34;5.90;99.90
20291;DHT22;10304;51.074;13.754;2023-12-07T03:37:01;5.90;99.90
20291;DHT22;10304;51.074;13.754;2023-12-07T03:39:28;5.90;99.90
20291;DHT22;10304;51.074;13.754;2023-12-07T03:41:57;5.90;99.90
20291;DHT22;10304;51.074;13.754;2023-12-07T03:44:24;5.90;99.90
20291;DHT22;10304;51.074;13.754;2023-12-07T03:46:54;5.90;99.90
20291;DHT22;10304;51.074;13.754;2023-12-07T03:49:21;5.90;99.90
20291;DHT22;10304;51.074;13.754;2023-12-07T03:51:48;5.90;99.90
20291;DHT22;10304;51.074;13.754;2023-12-07T03:54:15;5.90;99.90
20291;DHT22;10304;51.074;13.754;2023-12-07T03:56:42;5.90;99.90
20291;DHT22;10304;51.074;13.754;2023-12-07T03:59:09;5.90;99.90
20291;DHT22;10304;51.074;13.754;2023-12-07T04:01:36;5.90;99.90
20291;DHT22;10304;51.074;13.754;2023-12-07T04:04:03;5.90;99.90
20291;DHT22;10304;51.074;13.754;2023-12-07T04:06:32;5.90;99.90
20291;DHT22;10304;51.074;13.754;2023-12-07T04:08:59;5.90;99.90
20291;DHT22;10304;51.074;13.754;2023-12-07T04:11:26;5.90;99.90
20291;DHT22;10304;51.074;13.754;2023-12-07T04:13:52;5.90;99.90
20291;DHT22;10304;51.074;13.754;2023-12-07T04:16:19;5.90;99.90
20291;DHT22;10304;51.074;13.754;2023-12-07T04:18:47;6.00;99.90
20291;DHT22;10304;51.074;13.754;2023-12-07T04:21:13;6.00;15.30
20291;DHT22;10304;51.074;13.754;2023-12-07T04:23:40;6.00;1.00
20291;DHT22;10304;51.074;13.754;2023-12-07T04:26:07;5.90;1.00
20291;DHT22;10304;51.074;13.754;2023-12-07T04:28:34;6.00;1.00
20291;DHT22;10304;51.074;13.754;2023-12-07T04:31:02;5.90;1.00
20291;DHT22;10304;51.074;13.754;2023-12-07T04:33:29;5.90;1.00
20291;DHT22;10304;51.074;13.754;2023-12-07T04:35:56;6.00;1.00
20291;DHT22;10304;51.074;13.754;2023-12-07T04:38:24;5.90;1.00
20291;DHT22;10304;51.074;13.754;2023-12-07T04:40:51;6.00;1.00
20291;DHT22;10304;51.074;13.754;2023-12-07T04:43:17;6.00;1.00
20291;DHT22;10304;51.074;13.754;2023-12-07T04:45:44;6.00;1.00
20291;DHT22;10304;51.074;13.754;2023-12-07T04:48:11;6.00;1.00
20291;DHT22;10304;51.074;13.754;2023-12-07T04:50:39;6.00;1.00
20291;DHT22;10304;51.074;13.754;2023-12-07T04:53:05;6.00;1.00
20291;DHT22;10304;51.074;13.754;2023-12-07T04:55:32;6.00;1.00
20291;DHT22;10304;51.074;13.754;2023-12-07T04:57:59;6.00;1.00
20291;DHT22;10304;51.074;13.754;2023-12-07T05:00:26;6.10;1.00
20291;DHT22;10304;51.074;13.754;2023-12-07T05:02:54;6.10;1.00
20291;DHT22;10304;51.074;13.754;2023-12-07T05:05:21;6.10;1.00
20291;DHT22;10304;51.074;13.754;2023-12-07T05:07:48;6.10;1.00
20291;DHT22;10304;51.074;13.754;2023-12-07T05:10:15;6.20;1.00
20291;DHT22;10304;51.074;13.754;2023-12-07T05:12:41;6.20;1.00
20291;DHT22;10304;51.074;13.754;2023-12-07T05:15:08;6.20;1.00
20291;DHT22;10304;51.074;13.754;2023-12-07T05:17:36;6.20;99.90
20291;DHT22;10304;51.074;13.754;2023-12-07T05:20:03;6.30;99.90
20291;DHT22;10304;51.074;13.754;2023-12-07T05:22:31;6.30;99.90
20291;DHT22;10304;51.074;13.754;2023-12-07T05:24:58;6.30;99.90
20291;DHT22;10304;51.074;13.754;2023-12-07T05:27:26;6.30;99.90
20291;DHT22;10304;51.074;13.754;2023-12-07T05:29:53;6.40;99.40
20291;DHT22;10304;51.074;13.754;2023-12-07T05:32:20;6.40;53.10
20291;DHT22;10304;51.074;13.754;2023-12-07T05:34:47;6.30;41.20
20291;DHT22;10304;51.074;13.754;2023-12-07T05:37:14;6.40;1.00
20291;DHT22;10304;51.074;13.754;2023-12-07T05:39:41;6.30;1.00
20291;DHT22;10304;51.074;13.754;2023-12-07T05:42:08;6.40;1.00
20291;DHT22;10304;51.074;13.754;2023-12-07T05:44:35;6.40;1.00
20291;DHT22;10304;51.074;13.754;2023-12-07T05:47:02;6.40;1.00
20291;DHT22;10304;51.074;13.754;2023-12-07T05:49:29;6.40;1.00
20291;DHT22;10304;51.074;13.754;2023-12-07T05:51:56;6.40;1.00
20291;DHT22;10304;51.074;13.754;2023-12-07T05:54:22;6.40;19.70
20291;DHT22;10304;51.074;13.754;2023-12-07T05:56:49;6.40;99.90
20291;DHT22;10304;51.074;13.754;2023-12-07T05:59:17;6.40;99.90
20291;DHT22;10304;51.074;13.754;2023-12-07T06:01:44;6.40;99.90
20291;DHT22;10304;51.074;13.754;2023-12-07T06:04:11;6.50;99.90
20291;DHT22;10304;51.074;13.754;2023-12-07T06:06:40;6.40;99.90
20291;DHT22;10304;51.074;13.754;2023-12-07T06:09:07;6.40;99.90
20291;DHT22;10304;51.074;13.754;2023-12-07T06:11:35;6.40;99.90
20291;DHT22;10304;51.074;13.754;2023-12-07T06:14:02;6.40;99.90
20291;DHT22;10304;51.074;13.754;2023-12-07T06:16:30;6.30;99.90
20291;DHT22;10304;51.074;13.754;2023-12-07T06:18:57;6.30;1.00
20291;DHT22;10304;51.074;13.754;2023-12-07T06:21:24;6.30;1.00
20291;DHT22;10304;51.074;13.754;2023-12-07T06:23:54;6.30;1.00
20291;DHT22;10304;51.074;13.754;2023-12-07T06:26:20;6.30;1.00
20291;DHT22;10304;51.074;13.754;2023-12-07T06:28:48;6.30;1.00
20291;DHT22;10304;51.074;13.754;2023-12-07T06:31:15;6.20;1.00
20291;DHT22;10304;51.074;13.754;2023-12-07T06:33:42;6.30;1.00
20291;DHT22;10304;51.074;13.754;2023-12-07T06:36:10;6.20;1.00
20291;DHT22;10304;51.074;13.754;2023-12-07T06:38:37;6.20;1.00
20291;DHT22;10304;51.074;13.754;2023-12-07T06:41:05;6.20;1.00
20291;DHT22;10304;51.074;13.754;2023-12-07T06:43:32;6.20;99.90
20291;DHT22;10304;51.074;13.754;2023-12-07T06:45:59;6.20;1.00
20291;DHT22;10304;51.074;13.754;2023-12-07T06:48:26;6.20;1.00
20291;DHT22;10304;51.074;13.754;2023-12-07T06:50:53;6.30;1.00
20291;DHT22;10304;51.074;13.754;2023-12-07T06:53:20;6.30;72.80
20291;DHT22;10304;51.074;13.754;2023-12-07T06:55:47;6.40;99.90
20291;DHT22;10304;51.074;13.754;2023-12-07T06:58:14;6.40;1.00
20291;DHT22;10304;51.074;13.754;2023-12-07T07:00:41;6.40;1.00
20291;DHT22;10304;51.074;13.754;2023-12-07T07:03:08;6.40;1.00
20291;DHT22;10304;51.074;13.754;2023-12-07T07:05:35;6.30;99.90
20291;DHT22;10304;51.074;13.754;2023-12-07T07:08:02;6.40;99.90
20291;DHT22;10304;51.074;13.754;2023-12-07T07:10:29;6.30;99.90
20291;DHT22;10304;51.074;13.754;2023-12-07T07:13:00;6.30;99.90
20291;DHT22;10304;51.074;13.754;2023-12-07T07:15:32;6.40;99.90
20291;DHT22;10304;51.074;13.754;2023-12-07T07:17:59;6.30;99.90
20291;DHT22;10304;51.074;13.754;2023-12-07T07:20:27;6.40;99.90
20291;DHT22;10304;51.074;13.754;2023-12-07T07:22:54;6.40;99.90
20291;DHT22;10304;51.074;13.754;2023-12-07T07:25:20;6.40;99.90
20291;DHT22;10304;51.074;13.754;2023-12-07T07:27:48;6.40;51.10
20291;DHT22;10304;51.074;13.754;2023-12-07T07:30:15;6.40;1.00
20291;DHT22;10304;51.074;13.754;2023-12-07T07:32:42;6.40;1.00
20291;DHT22;10304;51.074;13.754;2023-12-07T07:35:09;6.40;1.00
20291;DHT22;10304;51.074;13.754;2023-12-07T07:37:38;6.40;1.00
20291;DHT22;10304;51.074;13.754;2023-12-07T07:40:06;6.40;1.00
20291;DHT22;10304;51.074;13.754;2023-12-07T07:42:33;6.40;1.00
20291;DHT22;10304;51.074;13.754;2023-12-07T07:45:00;6.50;1.00
20291;DHT22;10304;51.074;13.754;2023-12-07T07:47:27;6.50;99.90
20291;DHT22;10304;51.074;13.754;2023-12-07T07:49:54;6.50;99.90
20291;DHT22;10304;51.074;13.754;2023-12-07T07:52:21;6.60;99.90
20291;DHT22;10304;51.074;13.754;2023-12-07T07:54:47;6.60;71.10
20291;DHT22;10304;51.074;13.754;2023-12-07T07:57:14;6.60;26.90
20291;DHT22;10304;51.074;13.754;2023-12-07T07:59:41;6.60;18.00
20291;DHT22;10304;51.074;13.754;2023-12-07T08:02:08;6.60;1.00
20291;DHT22;10304;51.074;13.754;2023-12-07T08:04:35;6.60;1.00
20291;DHT22;10304;51.074;13.754;2023-12-07T08:07:01;6.60;1.00
20291;DHT22;10304;51.074;13.754;2023-12-07T08:09:28;6.70;1.00
20291;DHT22;10304;51.074;13.754;2023-12-07T08:11:55;6.70;1.00
20291;DHT22;10304;51.074;13.754;2023-12-07T08:14:22;6.70;1.00
20291;DHT22;10304;51.074;13.754;2023-12-07T08:16:49;6.70;1.00
20291;DHT22;10304;51.074;13.754;2023-12-07T08:19:15;6.70;1.00
20291;DHT22;10304;51.074;13.754;2023-12-07T08:21:42;6.70;99.90
20291;DHT22;10304;51.074;13.754;2023-12-07T08:24:09;6.70;99.90
20291;DHT22;10304;51.074;13.754;2023-12-07T08:26:36;6.80;99.90
20291;DHT22;10304;51.074;13.754;2023-12-07T08:29:02;6.80;99.90
20291;DHT22;10304;51.074;13.754;2023-12-07T08:31:31;6.80;99.90
20291;DHT22;10304;51.074;13.754;2023-12-07T08:33:58;6.90;99.90
20291;DHT22;10304;51.074;13.754;2023-12-07T08:36:25;6.90;1.00
20291;DHT22;10304;51.074;13.754;2023-12-07T08:38:52;6.80;1.00
20291;DHT22;10304;51.074;13.754;2023-12-07T08:41:19;6.80;1.00
20291;DHT22;10304;51.074;13.754;2023-12-07T08:43:46;6.70;1.00
20291;DHT22;10304;51.074;13.754;2023-12-07T08:46:13;6.70;1.00
20291;DHT22;10304;51.074;13.754;2023-12-07T08:48:39;6.70;1.00
20291;DHT22;10304;51.074;13.754;2023-12-07T08:51:09;6.70;1.00
20291;DHT22;10304;51.074;13.754;2023-12-07T08:53:36;6.70;1.00
20291;DHT22;10304;51.074;13.754;2023-12-07T08:56:03;6.70;1.00
20291;DHT22;10304;51.074;13.754;2023-12-07T08:58:30;6.70;1.00
20291;DHT22;10304;51.074;13.754;2023-12-07T09:00:57;6.60;99.90
20291;DHT22;10304;51.074;13.754;2023-12-07T09:03:24;6.70;99.90
20291;DHT22;10304;51.074;13.754;2023-12-07T09:05:54;6.60;99.90
20291;DHT22;10304;51.074;13.754;2023-12-07T09:08:21;6.50;1.00
20291;DHT22;10304;51.074;13.754;2023-12-07T09:10:48;6.40;1.00
20291;DHT22;10304;51.074;13.754;2023-12-07T09:13:18;6.30;1.00
20291;DHT22;10304;51.074;13.754;2023-12-07T09:15:45;6.30;99.90
20291;DHT22;10304;51.074;13.754;2023-12-07T09:18:12;6.30;99.90
20291;DHT22;10304;51.074;13.754;2023-12-07T09:20:39;6.30;99.90
20291;DHT22;10304;51.074;13.754;2023-12-07T09:23:13;6.20;99.90
20291;DHT22;10304;51.074;13.754;2023-12-07T09:25:42;6.20;1.00
20291;DHT22;10304;51.074;13.754;2023-12-07T09:28:09;6.30;99.90
20291;DHT22;10304;51.074;13.754;2023-12-07T09:30:36;6.30;1.00
20291;DHT22;10304;51.074;13.754;2023-12-07T09:33:03;6.30;1.00
20291;DHT22;10304;51.074;13.754;2023-12-07T09:35:30;6.30;1.00
20291;DHT22;10304;51.074;13.754;2023-12-07T09:37:57;6.40;1.00
20291;DHT22;10304;51.074;13.754;2023-12-07T09:40:24;6.30;99.90
20291;DHT22;10304;51.074;13.754;2023-12-07T09:42:52;6.40;99.90
20291;DHT22;10304;51.074;13.754;2023-12-07T09:45:20;6.40;99.90
20291;DHT22;10304;51.074;13.754;2023-12-07T09:47:52;6.40;99.90
20291;DHT22;10304;51.074;13.754;2023-12-07T09:50:20;6.50;99.90
20291;DHT22;10304;51.074;13.754;2023-12-07T09:52:52;6.50;2.60
20291;DHT22;10304;51.074;13.754;2023-12-07T09:55:33;6.40;63.90
20291;DHT22;10304;51.074;13.754;2023-12-07T09:58:03;6.50;1.00
20291;DHT22;10304;51.074;13.754;2023-12-07T10:00:31;6.50;1.00
20291;DHT22;10304;51.074;13.754;2023-12-07T10:02:59;6.50;1.00
20291;DHT22;10304;51.074;13.754;2023-12-07T10:05:26;6.40;1.00
20291;DHT22;10304;51.074;13.754;2023-12-07T10:07:53;6.40;1.00
20291;DHT22;10304;51.074;13.754;2023-12-07T10:10:20;6.40;1.00
20291;DHT22;10304;51.074;13.754;2023-12-07T10:12:56;6.40;1.00
20291;DHT22;10304;51.074;13.754;2023-12-07T10:15:25;6.50;1.00
20291;DHT22;10304;51.074;13.754;2023-12-07T10:17:57;6.50;1.00
20291;DHT22;10304;51.074;13.754;2023-12-07T10:20:27;6.50;1.00
20291;DHT22;10304;51.074;13.754;2023-12-07T10:23:05;6.50;1.00
20291;DHT22;10304;51.074;13.754;2023-12-07T10:25:37;6.50;1.00
20291;DHT22;10304;51.074;13.754;2023-12-07T10:28:04;6.50;1.00
20291;DHT22;10304;51.074;13.754;2023-12-07T10:30:35;6.60;1.00
20291;DHT22;10304;51.074;13.754;2023-12-07T10:33:05;6.50;1.00
20291;DHT22;10304;51.074;13.754;2023-12-07T10:35:38;6.50;1.00
20291;DHT22;10304;51.074;13.754;2023-12-07T10:38:07;6.50;1.00
20291;DHT22;10304;51.074;13.754;2023-12-07T10:40:34;6.50;1.00
20291;DHT22;10304;51.074;13.754;2023-12-07T10:43:05;6.50;1.00
20291;DHT22;10304;51.074;13.754;2023-12-07T10:45:33;6.50;1.00
20291;DHT22;10304;51.074;13.754;2023-12-07T10:48:09;6.50;1.00
20291;DHT22;10304;51.074;13.754;2023-12-07T10:50:40;6.50;1.00
20291;DHT22;10304;51.074;13.754;2023-12-07T10:53:26;6.50;17.90
20291;DHT22;10304;51.074;13.754;2023-12-07T10:55:56;6.50;99.90
20291;DHT22;10304;51.074;13.754;2023-12-07T10:58:23;6.50;99.90
20291;DHT22;10304;51.074;13.754;2023-12-07T11:00:55;6.50;99.90
20291;DHT22;10304;51.074;13.754;2023-12-07T11:03:24;6.50;46.50
20291;DHT22;10304;51.074;13.754;2023-12-07T11:05:51;6.50;56.00
20291;DHT22;10304;51.074;13.754;2023-12-07T11:08:41;6.40;99.90
20291;DHT22;10304;51.074;13.754;2023-12-07T11:13:53;6.40;1.00
20291;DHT22;10304;51.074;13.754;2023-12-07T11:16:39;6.40;51.10
20291;DHT22;10304;51.074;13.754;2023-12-07T11:22:05;6.30;37.30
20291;DHT22;10304;51.074;13.754;2023-12-07T11:24:33;6.20;63.00
20291;DHT22;10304;51.074;13.754;2023-12-07T11:26:59;6.20;99.90
20291;DHT22;10304;51.074;13.754;2023-12-07T11:29:28;6.30;99.90
20291;DHT22;10304;51.074;13.754;2023-12-07T11:31:56;6.20;94.20
20291;DHT22;10304;51.074;13.754;2023-12-07T11:34:51;6.20;99.90
20291;DHT22;10304;51.074;13.754;2023-12-07T11:37:19;6.30;99.90
20291;DHT22;10304;51.074;13.754;2023-12-07T11:39:46;6.30;99.90
20291;DHT22;10304;51.074;13.754;2023-12-07T11:42:19;6.30;99.90
20291;DHT22;10304;51.074;13.754;2023-12-07T11:44:49;6.30;1.00
20291;DHT22;10304;51.074;13.754;2023-12-07T11:47:19;6.30;1.00
20291;DHT22;10304;51.074;13.754;2023-12-07T11:49:46;6.30;1.00
20291;DHT22;10304;51.074;13.754;2023-12-07T11:52:19;6.30;57.70
20291;DHT22;10304;51.074;13.754;2023-12-07T11:54:47;6.30;43.10
20291;DHT22;10304;51.074;13.754;2023-12-07T11:57:15;6.30;99.90
20291;DHT22;10304;51.074;13.754;2023-12-07T11:59:44;6.30;99.90
20291;DHT22;10304;51.074;13.754;2023-12-07T12:02:12;6.30;99.90
20291;DHT22;10304;51.074;13.754;2023-12-07T12:04:43;6.30;99.90
20291;DHT22;10304;51.074;13.754;2023-12-07T12:07:10;6.30;99.90
20291;DHT22;10304;51.074;13.754;2023-12-07T12:09:37;6.40;99.90
20291;DHT22;10304;51.074;13.754;2023-12-07T12:12:04;6.40;76.00
20291;DHT22;10304;51.074;13.754;2023-12-07T12:14:31;6.30;1.00
20291;DHT22;10304;51.074;13.754;2023-12-07T12:16:58;6.30;99.90
20291;DHT22;10304;51.074;13.754;2023-12-07T12:19:25;6.30;99.90
20291;DHT22;10304;51.074;13.754;2023-12-07T12:22:03;6.30;99.90
20291;DHT22;10304;51.074;13.754;2023-12-07T12:24:35;6.30;36.40
20291;DHT22;10304;51.074;13.754;2023-12-07T12:27:03;6.30;99.90
20291;DHT22;10304;51.074;13.754;2023-12-07T12:29:30;6.30;99.90
20291;DHT22;10304;51.074;13.754;2023-12-07T12:32:01;6.30;1.00
20291;DHT22;10304;51.074;13.754;2023-12-07T12:34:29;6.30;99.90
20291;DHT22;10304;51.074;13.754;2023-12-07T12:36:56;6.30;99.90
20291;DHT22;10304;51.074;13.754;2023-12-07T12:39:28;6.30;99.90
20291;DHT22;10304;51.074;13.754;2023-12-07T12:42:00;6.30;99.90
20291;DHT22;10304;51.074;13.754;2023-12-07T12:44:33;6.30;99.90
20291;DHT22;10304;51.074;13.754;2023-12-07T12:47:08;6.30;99.90
20291;DHT22;10304;51.074;13.754;2023-12-07T12:49:38;6.30;99.90
20291;DHT22;10304;51.074;13.754;2023-12-07T12:52:10;6.40;99.90
20291;DHT22;10304;51.074;13.754;2023-12-07T12:54:42;6.30;99.90
20291;DHT22;10304;51.074;13.754;2023-12-07T12:57:10;6.30;1.00
20291;DHT22;10304;51.074;13.754;2023-12-07T12:59:37;6.30;1.00
20291;DHT22;10304;51.074;13.754;2023-12-07T13:02:05;6.40;1.00
20291;DHT22;10304;51.074;13.754;2023-12-07T13:04:33;6.30;1.00
20291;DHT22;10304;51.074;13.754;2023-12-07T13:07:08;6.30;1.00
20291;DHT22;10304;51.074;13.754;2023-12-07T13:09:35;6.30;1.00
20291;DHT22;10304;51.074;13.754;2023-12-07T13:12:02;6.30;1.00
20291;DHT22;10304;51.074;13.754;2023-12-07T13:14:34;6.30;1.00
20291;DHT22;10304;51.074;13.754;2023-12-07T13:17:39;6.30;1.00
20291;DHT22;10304;51.074;13.754;2023-12-07T13:20:15;6.30;1.00
20291;DHT22;10304;51.074;13.754;2023-12-07T13:22:45;6.30;1.00
20291;DHT22;10304;51.074;13.754;2023-12-07T13:25:13;6.40;1.00
20291;DHT22;10304;51.074;13.754;2023-12-07T13:27:41;6.40;1.00
20291;DHT22;10304;51.074;13.754;2023-12-07T13:30:14;6.40;1.00
20291;DHT22;10304;51.074;13.754;2023-12-07T13:32:44;6.50;1.00
20291;DHT22;10304;51.074;13.754;2023-12-07T13:35:14;6.50;1.00
20291;DHT22;10304;51.074;13.754;2023-12-07T13:37:43;6.60;1.00
20291;DHT22;10304;51.074;13.754;2023-12-07T13:40:11;6.60;1.00
20291;DHT22;10304;51.074;13.754;2023-12-07T13:42:41;6.70;1.00
20291;DHT22;10304;51.074;13.754;2023-12-07T13:45:14;6.60;1.00
20291;DHT22;10304;51.074;13.754;2023-12-07T13:47:45;6.70;99.90
20291;DHT22;10304;51.074;13.754;2023-12-07T13:50:13;6.70;99.90
20291;DHT22;10304;51.074;13.754;2023-12-07T13:52:40;6.70;99.90
20291;DHT22;10304;51.074;13.754;2023-12-07T13:55:09;6.80;99.90
20291;DHT22;10304;51.074;13.754;2023-12-07T13:57:51;6.80;99.90
20291;DHT22;10304;51.074;13.754;2023-12-07T14:00:34;6.80;99.90
20291;DHT22;10304;51.074;13.754;2023-12-07T14:03:01;6.80;99.90
20291;DHT22;10304;51.074;13.754;2023-12-07T14:05:28;6.80;99.90
20291;DHT22;10304;51.074;13.754;2023-12-07T14:07:56;6.80;99.90
20291;DHT22;10304;51.074;13.754;2023-12-07T14:10:24;6.80;99.90
20291;DHT22;10304;51.074;13.754;2023-12-07T14:12:53;6.90;99.90
20291;DHT22;10304;51.074;13.754;2023-12-07T14:15:20;6.80;96.50
20291;DHT22;10304;51.074;13.754;2023-12-07T14:18:05;6.80;1.00
20291;DHT22;10304;51.074;13.754;2023-12-07T14:20:35;6.80;1.00
20291;DHT22;10304;51.074;13.754;2023-12-07T14:23:22;6.80;1.00
20291;DHT22;10304;51.074;13.754;2023-12-07T14:25:51;6.80;1.00
20291;DHT22;10304;51.074;13.754;2023-12-07T14:28:18;6.90;1.00
20291;DHT22;10304;51.074;13.754;2023-12-07T14:30:45;6.90;1.00
20291;DHT22;10304;51.074;13.754;2023-12-07T14:33:12;6.90;1.00
20291;DHT22;10304;51.074;13.754;2023-12-07T14:35:39;6.90;1.00
20291;DHT22;10304;51.074;13.754;2023-12-07T14:38:07;6.90;1.00
20291;DHT22;10304;51.074;13.754;2023-12-07T14:40:33;6.90;1.00
20291;DHT22;10304;51.074;13.754;2023-12-07T14:43:01;6.90;1.00
20291;DHT22;10304;51.074;13.754;2023-12-07T14:45:28;6.90;1.00
20291;DHT22;10304;51.074;13.754;2023-12-07T14:48:10;6.90;1.00
20291;DHT22;10304;51.074;13.754;2023-12-07T14:51:06;6.90;1.00
20291;DHT22;10304;51.074;13.754;2023-12-07T14:53:33;6.90;1.00
20291;DHT22;10304;51.074;13.754;2023-12-07T14:56:00;6.90;99.90
20291;DHT22;10304;51.074;13.754;2023-12-07T14:58:32;6.90;99.90
20291;DHT22;10304;51.074;13.754;2023-12-07T15:01:02;6.90;99.90
20291;DHT22;10304;51.074;13.754;2023-12-07T15:03:29;6.90;99.90
20291;DHT22;10304;51.074;13.754;2023-12-07T15:05:56;6.90;99.90
20291;DHT22;10304;51.074;13.754;2023-12-07T15:08:23;6.80;99.90
20291;DHT22;10304;51.074;13.754;2023-12-07T15:10:50;6.80;44.90
20291;DHT22;10304;51.074;13.754;2023-12-07T15:13:21;6.80;1.00
20291;DHT22;10304;51.074;13.754;2023-12-07T15:15:53;6.80;1.00
20291;DHT22;10304;51.074;13.754;2023-12-07T15:18:36;6.70;1.00
20291;DHT22;10304;51.074;13.754;2023-12-07T15:21:41;6.80;1.00
20291;DHT22;10304;51.074;13.754;2023-12-07T15:24:09;6.70;1.00
20291;DHT22;10304;51.074;13.754;2023-12-07T15:26:42;6.70;1.00
20291;DHT22;10304;51.074;13.754;2023-12-07T15:29:14;6.70;1.00
20291;DHT22;10304;51.074;13.754;2023-12-07T15:31:41;6.70;1.00
20291;DHT22;10304;51.074;13.754;2023-12-07T15:34:10;6.60;1.00
20291;DHT22;10304;51.074;13.754;2023-12-07T15:36:54;6.60;1.00
20291;DHT22;10304;51.074;13.754;2023-12-07T15:39:23;6.60;1.00
20291;DHT22;10304;51.074;13.754;2023-12-07T15:41:51;6.70;1.00
20291;DHT22;10304;51.074;13.754;2023-12-07T15:44:22;6.60;1.00
20291;DHT22;10304;51.074;13.754;2023-12-07T15:46:55;6.60;1.00
20291;DHT22;10304;51.074;13.754;2023-12-07T15:49:25;6.60;1.00
20291;DHT22;10304;51.074;13.754;2023-12-07T15:51:53;6.70;1.00
20291;DHT22;10304;51.074;13.754;2023-12-07T15:54:25;6.70;1.00
20291;DHT22;10304;51.074;13.754;2023-12-07T15:57:05;6.70;1.00